Time;durP1;ratioP1;P1;durP2;ratioP2;P2;SDS_P1;SDS_P2;PMS_P1;PMS_P2;Temp;Humidity;BMP_temperature;BMP_pressure;BME280_temperature;BME280_humidity;BME280_pressure;Samples;Min_cycle;Max_cycle;Signal;HPM_P1;HPM_P2
2022/11/30 00:00:05;;;;;;;226.82;102.32;;;4.50;99.90;;;;;;5115022;28;20103;-66
2022/11/30 00:02:38;;;;;;;248.98;109.38;;;4.50;99.90;;;;;;5115103;28;20093;-66
2022/11/30 00:05:04;;;;;;;173.35;86.70;;;4.40;99.90;;;;;;5115084;28;20035;-66
2022/11/30 00:07:30;;;;;;;171.45;83.00;;;4.50;99.90;;;;;;5114686;28;20030;-66
2022/11/30 00:09:56;;;;;;;178.30;85.10;;;4.50;99.90;;;;;;5115184;28;20115;-66
2022/11/30 00:12:22;;;;;;;212.50;97.72;;;4.50;99.90;;;;;;5114960;28;20350;-66
2022/11/30 00:14:48;;;;;;;199.90;94.90;;;4.60;99.90;;;;;;5114806;28;20058;-66
2022/11/30 00:17:14;;;;;;;236.65;104.28;;;4.60;99.90;;;;;;5114861;28;20028;-66
2022/11/30 00:19:40;;;;;;;216.02;100.18;;;4.50;99.90;;;;;;5114863;28;20016;-66
2022/11/30 00:22:06;;;;;;;188.23;89.43;;;4.60;99.90;;;;;;5115178;28;20024;-66
2022/11/30 00:24:32;;;;;;;183.40;88.07;;;4.70;99.90;;;;;;5096619;28;20035;-66
2022/11/30 00:26:58;;;;;;;183.38;88.80;;;4.70;99.90;;;;;;5114809;28;20019;-66
2022/11/30 00:29:24;;;;;;;177.30;86.97;;;4.60;99.90;;;;;;5114896;28;20038;-66
2022/11/30 00:31:50;;;;;;;174.25;86.68;;;4.70;99.90;;;;;;5114686;28;20118;-66
2022/11/30 00:34:16;;;;;;;189.02;88.88;;;4.70;99.90;;;;;;5114673;28;20023;-66
2022/11/30 00:36:41;;;;;;;189.82;89.60;;;4.60;99.90;;;;;;5114737;28;20028;-66
2022/11/30 00:39:07;;;;;;;191.88;88.40;;;4.60;99.90;;;;;;5114799;28;20031;-66
2022/11/30 00:41:33;;;;;;;174.07;83.93;;;4.60;99.90;;;;;;5114631;28;20043;-66
2022/11/30 00:43:59;;;;;;;180.63;84.60;;;4.60;99.90;;;;;;5114607;28;20377;-66
2022/11/30 00:46:25;;;;;;;189.70;89.72;;;4.60;99.90;;;;;;5114572;28;20028;-66
2022/11/30 00:48:51;;;;;;;177.27;85.32;;;4.60;99.90;;;;;;5114515;28;20075;-66
2022/11/30 00:51:18;;;;;;;187.75;86.75;;;4.80;99.90;;;;;;5114603;28;20035;-66
2022/11/30 00:53:44;;;;;;;169.93;84.55;;;4.70;99.90;;;;;;5114648;28;20378;-66
2022/11/30 00:56:10;;;;;;;176.13;86.05;;;4.70;99.90;;;;;;5114253;28;20020;-66
2022/11/30 00:58:36;;;;;;;191.05;94.65;;;4.70;99.90;;;;;;5114604;28;20108;-66
2022/11/30 01:01:02;;;;;;;208.25;100.38;;;4.60;99.90;;;;;;5114194;28;20020;-66
2022/11/30 01:03:28;;;;;;;214.82;99.00;;;4.60;99.90;;;;;;5114431;28;20034;-66
2022/11/30 01:05:54;;;;;;;192.20;93.00;;;4.60;99.90;;;;;;5114482;28;20423;-66
2022/11/30 01:08:20;;;;;;;170.32;87.85;;;4.60;99.90;;;;;;5114443;28;20076;-66
2022/11/30 01:10:52;;;;;;;180.70;88.15;;;4.60;99.90;;;;;;5114150;28;20031;-66
2022/11/30 01:13:17;;;;;;;168.50;84.45;;;4.60;99.90;;;;;;5114212;28;20431;-66
2022/11/30 01:15:44;;;;;;;173.73;87.75;;;4.60;99.90;;;;;;5116051;28;20039;-66
2022/11/30 01:18:10;;;;;;;171.75;83.35;;;4.70;99.90;;;;;;5118017;28;20484;-66
2022/11/30 01:20:40;;;;;;;176.65;87.97;;;4.70;99.90;;;;;;5117967;28;20039;-66
2022/11/30 01:23:06;;;;;;;203.85;96.78;;;4.70;99.90;;;;;;5117765;28;20031;-66
2022/11/30 01:25:32;;;;;;;186.40;89.60;;;4.70;99.90;;;;;;5117915;28;20063;-66
2022/11/30 01:27:58;;;;;;;184.18;89.60;;;4.60;99.90;;;;;;5117791;28;20496;-66
2022/11/30 01:30:24;;;;;;;197.95;92.20;;;4.70;99.90;;;;;;5117781;28;20035;-66
2022/11/30 01:32:50;;;;;;;191.13;92.82;;;4.70;99.90;;;;;;5117644;28;20063;-66
2022/11/30 01:35:16;;;;;;;185.60;89.85;;;4.70;99.90;;;;;;5117479;28;20480;-66
2022/11/30 01:37:42;;;;;;;182.45;87.82;;;4.80;99.90;;;;;;5117687;28;20024;-66
2022/11/30 01:40:09;;;;;;;194.50;94.32;;;4.80;99.90;;;;;;5117630;28;20028;-66
2022/11/30 01:42:36;;;;;;;208.10;101.25;;;4.90;99.90;;;;;;5117480;28;20038;-66
2022/11/30 01:45:06;;;;;;;203.27;97.38;;;5.00;99.90;;;;;;5117496;28;20035;-66
2022/11/30 01:47:38;;;;;;;182.52;94.70;;;5.00;99.90;;;;;;5117474;28;20019;-66
2022/11/30 01:50:11;;;;;;;190.30;92.53;;;4.90;99.90;;;;;;5099139;28;20082;-66
2022/11/30 01:52:42;;;;;;;184.15;91.78;;;4.80;99.90;;;;;;5117381;28;20034;-66
2022/11/30 01:55:15;;;;;;;190.15;94.85;;;4.90;99.90;;;;;;5117271;28;20055;-66
2022/11/30 01:57:47;;;;;;;185.77;91.47;;;5.00;99.90;;;;;;5117413;28;20027;-66
2022/11/30 02:00:15;;;;;;;190.48;97.60;;;4.80;99.90;;;;;;5117212;28;20476;-66
2022/11/30 02:02:54;;;;;;;186.32;95.35;;;4.80;99.90;;;;;;5117198;28;20024;-66
2022/11/30 02:05:23;;;;;;;198.07;96.13;;;4.70;99.90;;;;;;5117294;28;20028;-66
2022/11/30 02:07:49;;;;;;;188.60;95.38;;;4.60;99.90;;;;;;5116793;28;20085;-66
2022/11/30 02:10:25;;;;;;;195.00;96.38;;;4.80;99.90;;;;;;5116893;28;20042;-66
2022/11/30 02:13:25;;;;;;;181.32;92.55;;;4.80;99.90;;;;;;5117144;28;20550;-66
2022/11/30 02:16:13;;;;;;;182.95;91.55;;;5.00;99.90;;;;;;5116777;28;20075;-66
2022/11/30 02:18:45;;;;;;;184.18;91.45;;;4.90;99.90;;;;;;5117029;28;20134;-66
2022/11/30 02:21:14;;;;;;;184.48;91.50;;;4.90;99.90;;;;;;5117003;28;20401;-66
2022/11/30 02:23:55;;;;;;;185.25;90.60;;;4.90;99.90;;;;;;5116753;28;20046;-66
2022/11/30 02:26:45;;;;;;;184.77;91.07;;;4.80;99.90;;;;;;5116707;28;20051;-66
2022/11/30 02:29:37;;;;;;;190.83;93.00;;;4.80;99.90;;;;;;5116805;28;20468;-66
2022/11/30 02:32:19;;;;;;;201.25;104.25;;;4.70;99.90;;;;;;5116505;28;20028;-66
2022/11/30 02:34:48;;;;;;;200.52;104.20;;;4.60;99.90;;;;;;5116624;28;20487;-66
2022/11/30 02:37:15;;;;;;;192.30;97.97;;;4.60;99.90;;;;;;5116549;28;20027;-66
2022/11/30 02:39:43;;;;;;;198.98;100.28;;;4.70;99.90;;;;;;5117156;28;20024;-66
2022/11/30 02:42:13;;;;;;;192.65;99.32;;;4.70;99.90;;;;;;5116515;28;20024;-66
2022/11/30 02:44:46;;;;;;;194.50;96.00;;;4.60;99.90;;;;;;5116522;28;20380;-66
2022/11/30 02:47:22;;;;;;;194.27;98.53;;;4.60;99.90;;;;;;5116140;28;20201;-66
2022/11/30 02:49:51;;;;;;;186.68;93.07;;;4.60;99.90;;;;;;5116272;28;20027;-66
2022/11/30 02:52:18;;;;;;;197.35;97.13;;;4.70;99.90;;;;;;5116182;28;20028;-66
2022/11/30 02:54:45;;;;;;;244.35;127.80;;;4.70;99.90;;;;;;5116048;28;20024;-66
2022/11/30 02:57:11;;;;;;;200.15;100.88;;;4.70;99.90;;;;;;5116176;28;20024;-66
2022/11/30 02:59:38;;;;;;;194.93;100.22;;;4.60;99.90;;;;;;5116106;28;20484;-66
2022/11/30 03:02:04;;;;;;;191.13;96.05;;;4.70;99.90;;;;;;5116083;28;20028;-66
2022/11/30 03:04:30;;;;;;;195.02;95.32;;;4.70;99.90;;;;;;5116047;28;20495;-66
2022/11/30 03:06:56;;;;;;;181.07;90.18;;;4.70;99.90;;;;;;5115839;28;20153;-66
2022/11/30 03:09:21;;;;;;;188.98;93.03;;;4.60;99.90;;;;;;5115719;28;20020;-66
2022/11/30 03:11:47;;;;;;;190.05;92.72;;;4.50;99.90;;;;;;5115800;28;20035;-66
2022/11/30 03:14:13;;;;;;;186.27;92.82;;;4.50;99.90;;;;;;5115788;28;20032;-66
2022/11/30 03:16:39;;;;;;;199.90;98.38;;;4.50;99.90;;;;;;5115754;28;20077;-66
2022/11/30 03:19:05;;;;;;;186.00;94.32;;;4.50;99.90;;;;;;5115554;28;20023;-66
2022/11/30 03:21:31;;;;;;;189.45;93.95;;;4.60;99.90;;;;;;5115591;28;20503;-66
2022/11/30 03:23:57;;;;;;;183.05;92.57;;;4.70;99.90;;;;;;5115491;28;20015;-66
2022/11/30 03:26:23;;;;;;;185.00;94.05;;;4.80;99.90;;;;;;5115558;28;20023;-66
2022/11/30 03:28:49;;;;;;;196.20;96.80;;;4.80;99.90;;;;;;5115530;28;20031;-66
2022/11/30 03:31:14;;;;;;;205.82;103.57;;;4.80;99.90;;;;;;5115427;28;20030;-66
2022/11/30 03:33:41;;;;;;;211.55;103.55;;;4.80;99.90;;;;;;5115452;28;20080;-66
2022/11/30 03:36:09;;;;;;;206.75;103.50;;;4.70;99.90;;;;;;5115429;28;20027;-66
2022/11/30 03:38:36;;;;;;;188.05;94.43;;;4.70;99.90;;;;;;5114808;28;20465;-66
2022/11/30 03:41:09;;;;;;;226.45;117.13;;;4.70;99.90;;;;;;5115274;28;20095;-66
2022/11/30 03:43:35;;;;;;;193.60;97.10;;;4.70;99.90;;;;;;5115107;28;20045;-66
2022/11/30 03:46:01;;;;;;;179.65;92.25;;;4.80;99.90;;;;;;5115225;28;20027;-66
2022/11/30 03:48:27;;;;;;;175.02;91.68;;;4.90;99.90;;;;;;5115334;28;20080;-66
2022/11/30 03:50:53;;;;;;;185.27;93.55;;;4.90;99.90;;;;;;5115179;28;20442;-66
2022/11/30 03:53:20;;;;;;;182.80;91.97;;;4.80;99.90;;;;;;5115125;28;20031;-66
2022/11/30 03:55:53;;;;;;;193.82;94.20;;;4.80;99.90;;;;;;5115064;28;20062;-66
2022/11/30 03:58:21;;;;;;;177.07;88.55;;;4.70;99.90;;;;;;5115107;28;20015;-66
2022/11/30 04:00:47;;;;;;;179.20;91.30;;;4.80;99.90;;;;;;5115134;28;20072;-66
2022/11/30 04:03:13;;;;;;;185.02;94.70;;;4.80;99.90;;;;;;5115109;28;20020;-66
2022/11/30 04:05:39;;;;;;;193.23;94.78;;;4.90;99.90;;;;;;5115080;28;20145;-66
2022/11/30 04:08:05;;;;;;;203.65;100.57;;;4.90;99.90;;;;;;5114756;28;20118;-66
2022/11/30 04:10:30;;;;;;;204.57;100.68;;;4.90;99.90;;;;;;5114767;28;20028;-66
2022/11/30 04:12:56;;;;;;;177.27;90.05;;;4.80;99.90;;;;;;5115394;28;20461;-66
2022/11/30 04:15:22;;;;;;;202.05;97.45;;;4.90;99.90;;;;;;5114664;28;20047;-66
2022/11/30 04:17:48;;;;;;;198.13;93.95;;;5.00;99.90;;;;;;5114981;28;20073;-66
2022/11/30 04:20:14;;;;;;;197.30;94.40;;;4.90;99.90;;;;;;5114812;28;20481;-66
2022/11/30 04:22:40;;;;;;;202.68;96.40;;;5.00;99.90;;;;;;5114911;28;20020;-66
2022/11/30 04:25:07;;;;;;;195.48;90.93;;;4.90;99.90;;;;;;5114844;28;20208;-66
2022/11/30 04:27:32;;;;;;;206.25;95.60;;;4.80;99.90;;;;;;5114923;28;20122;-66
2022/11/30 04:29:58;;;;;;;197.27;93.38;;;4.90;99.90;;;;;;5114803;28;20067;-66
2022/11/30 04:32:24;;;;;;;197.88;95.03;;;4.80;99.90;;;;;;5114771;28;20034;-66
2022/11/30 04:34:50;;;;;;;201.77;97.03;;;4.70;99.90;;;;;;5114510;28;20036;-66
2022/11/30 04:37:16;;;;;;;200.85;93.97;;;4.70;99.90;;;;;;5114840;28;20120;-66
2022/11/30 04:39:42;;;;;;;198.55;94.32;;;4.80;99.90;;;;;;5114637;28;20024;-66
2022/11/30 04:42:08;;;;;;;200.80;91.13;;;4.80;99.90;;;;;;5114898;28;20039;-66
2022/11/30 04:44:33;;;;;;;205.55;96.13;;;4.80;99.90;;;;;;5114682;28;20031;-66
2022/11/30 04:46:59;;;;;;;204.43;91.72;;;4.90;99.90;;;;;;5114668;28;20020;-66
2022/11/30 04:49:25;;;;;;;184.23;87.25;;;5.00;99.90;;;;;;5114650;28;20533;-66
2022/11/30 04:51:51;;;;;;;193.05;89.10;;;4.90;99.90;;;;;;5118502;28;20026;-66
2022/11/30 04:54:17;;;;;;;179.25;80.45;;;4.70;99.90;;;;;;5118396;28;20024;-66
2022/11/30 04:56:43;;;;;;;196.85;91.25;;;4.90;99.90;;;;;;5118495;28;20055;-66
2022/11/30 04:59:09;;;;;;;169.38;84.80;;;4.80;99.90;;;;;;5118491;28;20024;-66
2022/11/30 05:01:34;;;;;;;169.75;79.03;;;4.80;99.90;;;;;;5118458;28;20030;-66
2022/11/30 05:04:00;;;;;;;159.05;77.95;;;4.80;99.90;;;;;;5118239;28;20031;-66
2022/11/30 05:06:26;;;;;;;165.50;74.13;;;4.80;99.90;;;;;;5118116;28;20169;-66
2022/11/30 05:08:52;;;;;;;46.03;26.08;;;4.80;99.90;;;;;;5118173;28;20027;-66
2022/11/30 05:11:18;;;;;;;45.45;25.42;;;4.70;99.90;;;;;;5118221;28;20042;-66
2022/11/30 05:13:44;;;;;;;50.70;27.05;;;4.80;99.90;;;;;;5118467;28;20381;-66
2022/11/30 05:16:10;;;;;;;95.32;46.55;;;4.80;99.90;;;;;;5118045;28;20044;-66
2022/11/30 05:18:36;;;;;;;102.80;49.03;;;4.80;99.90;;;;;;5117995;28;20027;-66
2022/11/30 05:21:02;;;;;;;78.10;39.33;;;4.80;99.90;;;;;;5118022;28;20078;-66
2022/11/30 05:23:28;;;;;;;66.25;32.40;;;4.90;99.90;;;;;;5117903;28;20358;-66
2022/11/30 05:25:54;;;;;;;59.75;30.25;;;4.90;99.90;;;;;;5117937;28;20047;-66
2022/11/30 05:28:20;;;;;;;56.85;28.30;;;5.00;99.90;;;;;;5117921;28;20107;-66
2022/11/30 05:30:46;;;;;;;51.10;27.75;;;5.00;99.90;;;;;;5117803;28;20389;-66
2022/11/30 05:33:12;;;;;;;57.97;29.02;;;5.00;99.90;;;;;;5117800;28;20024;-66
2022/11/30 05:35:38;;;;;;;45.53;25.08;;;5.10;99.90;;;;;;5117792;28;20024;-66
2022/11/30 05:38:04;;;;;;;54.22;27.65;;;5.10;99.90;;;;;;5117622;28;20035;-66
2022/11/30 05:40:31;;;;;;;64.50;32.47;;;5.20;99.90;;;;;;5117646;28;20035;-66
2022/11/30 05:42:59;;;;;;;63.85;30.85;;;5.20;99.90;;;;;;5117563;28;20023;-66
2022/11/30 05:45:26;;;;;;;65.53;33.55;;;5.10;99.90;;;;;;5117390;28;20460;-66
2022/11/30 05:47:52;;;;;;;62.00;33.80;;;5.20;99.90;;;;;;5117397;28;20190;-66
2022/11/30 05:50:18;;;;;;;70.97;34.97;;;5.30;99.90;;;;;;5117498;28;20031;-66
2022/11/30 05:52:44;;;;;;;71.07;35.17;;;5.30;99.90;;;;;;5117356;28;20058;-66
2022/11/30 05:55:10;;;;;;;67.07;33.10;;;5.20;99.90;;;;;;5117085;28;20042;-66
2022/11/30 05:57:37;;;;;;;64.63;31.17;;;5.30;99.90;;;;;;5117350;28;20020;-66
2022/11/30 06:00:06;;;;;;;77.60;33.58;;;5.30;99.90;;;;;;5117031;28;20095;-66
2022/11/30 06:02:37;;;;;;;58.65;29.83;;;5.30;99.90;;;;;;5116507;28;20054;-66
2022/11/30 06:05:04;;;;;;;58.17;30.30;;;5.40;99.90;;;;;;5117106;28;20122;-66
2022/11/30 06:07:29;;;;;;;48.90;24.88;;;5.30;99.90;;;;;;5116824;28;20640;-66
2022/11/30 06:09:55;;;;;;;43.88;24.98;;;5.30;99.90;;;;;;5105784;28;20052;-66
2022/11/30 06:12:21;;;;;;;53.20;26.27;;;5.20;99.90;;;;;;5096502;28;20103;-66
2022/11/30 06:14:49;;;;;;;76.47;34.90;;;5.30;99.90;;;;;;5102076;28;20047;-66
2022/11/30 06:17:15;;;;;;;73.80;36.08;;;5.40;99.90;;;;;;5116781;28;20087;-66
2022/11/30 06:19:42;;;;;;;68.40;34.70;;;5.30;99.90;;;;;;5116469;28;20418;-66
2022/11/30 06:22:07;;;;;;;65.28;31.15;;;5.40;99.90;;;;;;5116760;28;20024;-66
2022/11/30 06:24:33;;;;;;;63.05;32.72;;;5.40;99.90;;;;;;5117362;28;20042;-66
2022/11/30 06:27:00;;;;;;;75.82;36.70;;;5.50;99.90;;;;;;5117169;28;20415;-66
2022/11/30 06:29:34;;;;;;;57.63;27.90;;;5.50;99.90;;;;;;5099857;28;20024;-66
2022/11/30 06:32:00;;;;;;;61.65;31.30;;;5.50;99.90;;;;;;5095373;28;20035;-66
2022/11/30 06:34:28;;;;;;;54.45;28.42;;;5.50;99.90;;;;;;5096281;28;20031;-66
2022/11/30 06:36:56;;;;;;;50.67;24.63;;;5.50;99.90;;;;;;5096731;28;20082;-66
2022/11/30 06:39:22;;;;;;;50.40;26.50;;;5.50;99.90;;;;;;5095997;28;20028;-66
2022/11/30 06:41:48;;;;;;;58.78;29.02;;;5.50;99.90;;;;;;5095842;28;20030;-66
2022/11/30 06:44:14;;;;;;;54.80;27.92;;;5.60;99.90;;;;;;5095855;28;20032;-66
2022/11/30 06:46:40;;;;;;;51.13;27.83;;;5.50;99.90;;;;;;5077489;28;20334;-66
2022/11/30 06:49:06;;;;;;;52.00;28.52;;;5.50;99.90;;;;;;5096016;28;20556;-66
2022/11/30 06:51:32;;;;;;;58.75;28.88;;;5.50;99.90;;;;;;5080637;28;20032;-66
2022/11/30 06:53:58;;;;;;;58.53;26.92;;;5.50;99.90;;;;;;5084476;28;20069;-66
2022/11/30 06:56:24;;;;;;;53.50;26.95;;;5.50;99.90;;;;;;5086638;28;20451;-66
2022/11/30 06:58:51;;;;;;;50.85;24.85;;;5.40;99.90;;;;;;5079938;28;20059;-66
2022/11/30 07:01:17;;;;;;;42.65;22.95;;;5.40;99.90;;;;;;5081784;28;20142;-66
2022/11/30 07:03:44;;;;;;;45.60;25.48;;;5.40;99.90;;;;;;5081648;28;20023;-66
2022/11/30 07:06:13;;;;;;;47.15;25.20;;;5.50;99.90;;;;;;5051914;28;20039;-66
2022/11/30 07:08:40;;;;;;;49.15;26.48;;;5.50;99.90;;;;;;5059347;28;20024;-66
2022/11/30 07:11:08;;;;;;;56.88;30.33;;;5.50;99.90;;;;;;5093297;28;20029;-66
2022/11/30 07:13:34;;;;;;;60.78;31.00;;;5.60;99.90;;;;;;5079477;28;20021;-66
2022/11/30 07:16:04;;;;;;;59.85;29.08;;;5.60;99.90;;;;;;5106593;28;20039;-67
2022/11/30 07:18:31;;;;;;;56.22;27.30;;;5.60;99.90;;;;;;5115477;28;20053;-66
2022/11/30 07:21:00;;;;;;;51.67;28.48;;;5.70;99.90;;;;;;5088894;28;20107;-66
2022/11/30 07:26:15;;;;;;;52.67;29.02;;;5.80;99.90;;;;;;5076947;28;20032;-66
2022/11/30 07:28:45;;;;;;;60.15;32.65;;;5.80;99.90;;;;;;5085417;28;20166;-66
2022/11/30 07:31:26;;;;;;;49.88;28.23;;;5.80;99.90;;;;;;5085438;28;20051;-66
2022/11/30 07:33:53;;;;;;;45.83;25.55;;;5.80;99.90;;;;;;5080404;28;20032;-66
2022/11/30 07:36:21;;;;;;;45.30;23.88;;;5.70;99.90;;;;;;5087629;28;20477;-66
2022/11/30 07:38:48;;;;;;;47.67;25.58;;;5.80;99.90;;;;;;5085062;28;20423;-66
2022/11/30 07:41:14;;;;;;;47.55;27.08;;;5.90;99.90;;;;;;5087186;28;20073;-66
2022/11/30 07:43:42;;;;;;;42.15;23.98;;;5.90;99.90;;;;;;5088644;28;20020;-66
2022/11/30 07:46:13;;;;;;;48.92;24.80;;;5.90;99.90;;;;;;5091426;28;20031;-66
2022/11/30 07:48:39;;;;;;;59.33;29.25;;;6.00;99.90;;;;;;5087283;28;20032;-67
2022/11/30 07:51:07;;;;;;;56.42;29.67;;;6.00;99.90;;;;;;5078753;28;20434;-66
2022/11/30 07:53:33;;;;;;;56.10;29.20;;;6.00;99.90;;;;;;5094865;28;20084;-66
2022/11/30 07:56:05;;;;;;;49.03;27.48;;;5.90;99.90;;;;;;5114998;28;20035;-66
2022/11/30 07:58:31;;;;;;;45.58;25.42;;;6.00;99.90;;;;;;5115120;28;20020;-66
2022/11/30 08:01:04;;;;;;;51.20;27.08;;;6.10;99.90;;;;;;5114897;28;20403;-66
2022/11/30 08:03:31;;;;;;;54.05;27.02;;;6.10;99.90;;;;;;5114947;28;20023;-66
2022/11/30 08:06:08;;;;;;;49.78;26.60;;;6.00;99.90;;;;;;5096877;28;20485;-66
2022/11/30 08:08:40;;;;;;;50.33;26.95;;;6.10;99.90;;;;;;5091459;28;20024;-66
2022/11/30 08:11:08;;;;;;;53.92;27.20;;;6.10;99.90;;;;;;5075017;28;20036;-66
2022/11/30 08:13:34;;;;;;;60.22;27.25;;;6.10;99.90;;;;;;5085759;28;20025;-66
2022/11/30 08:16:08;;;;;;;80.78;34.50;;;6.20;99.90;;;;;;5096392;28;20055;-66
2022/11/30 08:18:35;;;;;;;69.13;31.98;;;6.10;99.90;;;;;;5111928;28;20479;-65
2022/11/30 08:21:04;;;;;;;70.60;34.05;;;6.10;99.90;;;;;;5115816;28;20028;-65
2022/11/30 08:23:33;;;;;;;85.72;34.55;;;6.10;99.90;;;;;;5111267;28;20023;-65
2022/11/30 08:26:07;;;;;;;82.85;32.95;;;6.00;99.90;;;;;;5110100;27;20039;-65
2022/11/30 08:28:36;;;;;;;69.45;30.00;;;6.00;99.90;;;;;;5105049;28;20071;-65
2022/11/30 08:31:05;;;;;;;84.13;31.25;;;6.00;99.90;;;;;;5118861;27;20040;-65
2022/11/30 08:33:32;;;;;;;91.07;33.47;;;6.10;99.90;;;;;;5118562;27;20350;-65
2022/11/30 08:36:09;;;;;;;75.57;32.05;;;6.10;99.90;;;;;;5107549;27;20056;-65
2022/11/30 08:38:36;;;;;;;73.43;31.60;;;6.00;99.90;;;;;;5109903;28;20020;-65
2022/11/30 08:41:02;;;;;;;73.28;31.77;;;6.00;99.90;;;;;;5111109;27;20024;-65
2022/11/30 08:43:28;;;;;;;85.97;34.30;;;5.90;99.90;;;;;;5119394;28;20047;-65
2022/11/30 08:45:54;;;;;;;98.93;35.70;;;5.90;99.90;;;;;;5116215;27;20039;-65
2022/11/30 08:48:20;;;;;;;84.70;36.72;;;6.00;99.90;;;;;;5112488;27;20508;-65
2022/11/30 08:50:46;;;;;;;53.33;27.35;;;5.90;99.90;;;;;;5107596;27;20039;-65
2022/11/30 08:53:15;;;;;;;54.45;28.10;;;6.10;99.90;;;;;;5104900;27;20623;-65
2022/11/30 08:56:03;;;;;;;46.20;23.63;;;6.20;99.90;;;;;;5114836;27;20056;-65
2022/11/30 08:58:46;;;;;;;60.10;27.10;;;6.10;99.90;;;;;;5103648;27;20029;-65
2022/11/30 09:01:20;;;;;;;73.53;28.85;;;6.20;99.90;;;;;;5106627;27;20024;-65
2022/11/30 09:03:48;;;;;;;52.72;25.23;;;6.20;99.90;;;;;;5116382;27;20024;-65
2022/11/30 09:06:24;;;;;;;49.10;23.77;;;6.20;99.90;;;;;;5100968;28;20115;-66
2022/11/30 09:08:54;;;;;;;55.42;24.98;;;6.30;99.90;;;;;;5121516;27;20038;-65
2022/11/30 09:11:33;;;;;;;39.20;21.15;;;6.30;99.90;;;;;;5115502;27;20474;-66
2022/11/30 09:14:03;;;;;;;41.13;23.02;;;6.40;99.90;;;;;;5107549;27;20089;-66
2022/11/30 09:16:29;;;;;;;46.85;24.35;;;6.30;99.90;;;;;;5108192;28;20100;-65
2022/11/30 09:18:55;;;;;;;46.13;23.05;;;6.30;99.90;;;;;;5113577;27;20024;-66
2022/11/30 09:21:24;;;;;;;50.10;23.80;;;6.40;99.90;;;;;;5111012;27;20024;-66
2022/11/30 09:23:50;;;;;;;45.42;24.02;;;6.40;99.90;;;;;;5117927;28;20020;-66
2022/11/30 09:26:18;;;;;;;46.67;22.80;;;6.40;99.90;;;;;;5117943;28;20366;-65
2022/11/30 09:28:46;;;;;;;66.60;26.90;;;6.40;99.90;;;;;;5121050;27;20031;-65
2022/11/30 09:31:17;;;;;;;45.88;24.38;;;6.40;99.90;;;;;;5104954;27;20165;-66
2022/11/30 09:33:44;;;;;;;47.60;23.52;;;6.50;99.90;;;;;;5120376;27;20050;-65
2022/11/30 09:36:13;;;;;;;38.38;21.98;;;6.60;99.90;;;;;;5118738;27;20024;-65
2022/11/30 09:38:41;;;;;;;42.05;21.05;;;6.60;99.90;;;;;;5108469;28;20444;-65
2022/11/30 09:41:33;;;;;;;37.45;20.67;;;6.60;99.90;;;;;;5116800;28;20023;-65
2022/11/30 09:44:17;;;;;;;39.53;21.83;;;6.70;99.90;;;;;;5073522;28;20107;-66
2022/11/30 09:47:03;;;;;;;42.03;21.88;;;6.50;99.90;;;;;;5091743;27;20090;-66
2022/11/30 09:49:41;;;;;;;42.35;22.92;;;6.50;99.90;;;;;;5129281;27;20034;-65
2022/11/30 09:52:21;;;;;;;43.22;23.20;;;6.60;99.90;;;;;;5117217;27;20039;-65
2022/11/30 09:54:51;;;;;;;59.75;28.02;;;6.60;99.90;;;;;;5095455;28;20485;-66
2022/11/30 09:57:38;;;;;;;64.10;29.85;;;6.60;99.90;;;;;;5106432;27;20027;-66
2022/11/30 10:00:20;;;;;;;55.65;26.20;;;6.50;99.90;;;;;;5112431;27;20103;-66
2022/11/30 10:02:52;;;;;;;58.75;28.00;;;6.40;99.90;;;;;;5111418;28;20027;-66
2022/11/30 10:05:22;;;;;;;57.15;27.15;;;6.40;99.90;;;;;;5109477;28;20549;-66
2022/11/30 10:08:18;;;;;;;59.95;28.52;;;6.30;99.90;;;;;;5110236;27;20024;-66
2022/11/30 10:11:02;;;;;;;49.30;25.73;;;6.40;99.90;;;;;;5117880;27;20096;-66
2022/11/30 10:13:38;;;;;;;46.95;24.20;;;6.40;99.90;;;;;;5110624;27;20116;-66
2022/11/30 10:16:37;;;;;;;46.63;23.48;;;6.50;99.90;;;;;;5106236;27;20057;-66
2022/11/30 10:19:39;;;;;;;59.35;27.70;;;6.60;99.90;;;;;;5118903;27;20083;-65
2022/11/30 10:22:21;;;;;;;56.63;27.20;;;6.50;99.90;;;;;;5106812;28;20034;-65
2022/11/30 10:25:12;;;;;;;60.33;29.27;;;6.60;99.90;;;;;;5113246;27;20023;-65
2022/11/30 10:27:48;;;;;;;63.95;29.10;;;6.60;99.90;;;;;;5109992;27;20084;-65
2022/11/30 10:30:21;;;;;;;49.83;25.20;;;6.60;99.90;;;;;;5110741;27;20092;-65
2022/11/30 10:32:53;;;;;;;52.33;26.65;;;6.50;99.90;;;;;;5112443;27;20466;-65
2022/11/30 10:35:22;;;;;;;53.33;23.27;;;6.50;99.90;;;;;;5113229;27;20115;-65
2022/11/30 10:37:50;;;;;;;43.08;22.13;;;6.50;99.90;;;;;;5123927;27;20412;-65
2022/11/30 10:40:46;;;;;;;53.83;23.92;;;6.50;99.90;;;;;;5124826;27;20110;-65
2022/11/30 10:43:37;;;;;;;72.60;28.65;;;6.50;99.90;;;;;;5091767;27;20050;-65
2022/11/30 10:46:04;;;;;;;51.85;27.15;;;6.60;99.90;;;;;;5097627;27;20072;-66
2022/11/30 10:48:35;;;;;;;48.03;24.95;;;6.60;99.90;;;;;;5112051;27;20026;-65
2022/11/30 10:51:02;;;;;;;54.67;29.50;;;6.70;99.90;;;;;;5114718;27;20028;-65
2022/11/30 10:53:31;;;;;;;58.05;31.65;;;6.80;99.90;;;;;;5109710;27;20031;-66
2022/11/30 10:56:12;;;;;;;52.72;27.73;;;6.70;99.90;;;;;;5104473;28;20062;-65
2022/11/30 10:58:57;;;;;;;53.83;28.05;;;6.60;99.90;;;;;;5113150;27;20020;-65
2022/11/30 11:01:35;;;;;;;56.55;28.30;;;6.60;99.90;;;;;;5118956;27;20023;-65
2022/11/30 11:04:11;;;;;;;55.47;28.95;;;6.70;99.90;;;;;;5122045;27;20030;-65
2022/11/30 11:06:42;;;;;;;53.55;28.10;;;6.70;99.90;;;;;;5107854;27;20020;-66
2022/11/30 11:09:26;;;;;;;46.33;25.70;;;6.80;99.90;;;;;;5112585;27;20115;-65
2022/11/30 11:11:53;;;;;;;50.78;25.98;;;6.70;99.90;;;;;;5124837;27;20487;-66
2022/11/30 11:14:25;;;;;;;45.22;23.75;;;6.80;99.90;;;;;;5092610;27;20038;-65
2022/11/30 11:17:01;;;;;;;47.70;24.85;;;6.80;99.90;;;;;;5114303;27;20409;-65
2022/11/30 11:19:40;;;;;;;53.47;26.27;;;6.80;99.90;;;;;;5113020;27;20492;-65
2022/11/30 11:22:28;;;;;;;66.35;28.73;;;6.80;99.90;;;;;;5111772;27;20045;-65
2022/11/30 11:25:20;;;;;;;46.45;24.95;;;6.90;99.90;;;;;;5130749;27;20129;-66
2022/11/30 11:27:52;;;;;;;47.10;23.80;;;6.90;99.90;;;;;;5130562;27;20075;-65
2022/11/30 11:30:23;;;;;;;44.05;23.30;;;6.90;99.90;;;;;;5127117;27;20286;-65
2022/11/30 11:33:20;;;;;;;40.15;22.23;;;6.80;99.90;;;;;;5129252;27;20079;-65
2022/11/30 11:35:49;;;;;;;48.60;25.17;;;6.90;99.90;;;;;;5132605;27;20055;-65
2022/11/30 11:38:52;;;;;;;43.17;22.85;;;6.90;99.90;;;;;;5131863;27;20545;-65
2022/11/30 11:41:24;;;;;;;45.08;23.95;;;6.90;99.90;;;;;;5101089;27;20545;-65
2022/11/30 11:43:59;;;;;;;36.30;21.20;;;6.90;99.90;;;;;;5132620;27;20027;-66
2022/11/30 11:46:26;;;;;;;36.30;21.73;;;6.90;99.90;;;;;;5131820;27;20030;-65
2022/11/30 11:49:18;;;;;;;37.00;21.38;;;7.00;99.90;;;;;;5122683;27;20393;-65
2022/11/30 11:52:03;;;;;;;75.22;38.53;;;7.00;99.90;;;;;;5131800;27;20064;-66
2022/11/30 11:54:41;;;;;;;54.25;29.17;;;6.90;99.90;;;;;;5126207;27;20718;-66
2022/11/30 11:57:13;;;;;;;45.72;25.92;;;6.80;99.90;;;;;;5111027;27;20079;-66
2022/11/30 12:00:05;;;;;;;40.28;23.65;;;6.80;99.90;;;;;;5123764;27;20128;-65
2022/11/30 12:02:47;;;;;;;43.28;25.88;;;6.90;99.90;;;;;;5109305;27;20023;-66
2022/11/30 12:05:31;;;;;;;53.30;28.15;;;6.80;99.90;;;;;;5130709;27;20023;-65
2022/11/30 12:08:06;;;;;;;40.63;22.95;;;6.70;99.90;;;;;;5126441;27;20023;-65
2022/11/30 12:10:55;;;;;;;37.35;20.88;;;6.60;99.90;;;;;;5125565;27;20027;-66
2022/11/30 12:13:37;;;;;;;54.90;30.73;;;6.60;99.90;;;;;;5127130;27;20079;-65
2022/11/30 12:16:21;;;;;;;62.00;34.10;;;6.60;99.90;;;;;;5121324;28;21998;-65
2022/11/30 12:18:59;;;;;;;67.60;33.20;;;6.70;99.90;;;;;;5128730;28;20027;-65
2022/11/30 12:21:48;;;;;;;50.85;28.90;;;6.60;99.90;;;;;;5130621;27;20020;-65
2022/11/30 12:24:43;;;;;;;36.92;21.70;;;6.80;99.90;;;;;;5125483;28;20376;-66
2022/11/30 12:27:21;;;;;;;43.47;25.27;;;6.80;99.90;;;;;;5124160;28;20114;-66
2022/11/30 12:30:21;;;;;;;42.35;24.13;;;6.90;99.90;;;;;;5130155;28;20061;-65
2022/11/30 12:33:18;;;;;;;47.13;26.25;;;6.80;99.90;;;;;;5130059;28;20426;-66
2022/11/30 12:36:15;;;;;;;39.97;23.52;;;6.80;99.90;;;;;;5130469;28;20023;-66
2022/11/30 12:38:53;;;;;;;44.35;24.85;;;6.80;99.90;;;;;;5130868;28;20047;-65
2022/11/30 12:41:29;;;;;;;42.20;24.90;;;6.90;99.90;;;;;;5121357;27;20028;-66
2022/11/30 12:44:14;;;;;;;48.58;26.17;;;7.00;99.90;;;;;;5124578;28;20077;-66
2022/11/30 12:46:54;;;;;;;41.53;23.77;;;7.00;99.90;;;;;;5125921;27;20101;-66
2022/11/30 12:49:40;;;;;;;42.30;24.77;;;7.00;99.90;;;;;;5128429;27;20031;-65
2022/11/30 12:52:28;;;;;;;45.83;25.42;;;7.00;99.90;;;;;;5121554;27;20027;-65
2022/11/30 12:55:03;;;;;;;46.45;26.30;;;6.90;99.90;;;;;;5129833;28;20031;-66